Silver Bergen — LAHO6 — position and weather

sailwx.info

Track history (hours):
 
Tides and Currents Weather Stations Pressure Air Temp Water Temp Dewpoint Dewpoint Depression Visibility Wind Speed Wind Dir Waves Ship Positions

Silver Bergen

Last reported at 2016-Dec-05 10:16 UTC. Time now 2016-Dec-08 00:15 UTC.
Position N 35°55' W 004°44'.

Length 98 m; draft 5.9 m.

Type: Cargo ship. MMSI: 257951000.

Date/timePositionNaut miles runAvg speedWind from/ knotsBaromVisibWave heightAir tempDewpointWater temp
2016-Dec-05 10:16N 35°55' W 004°44'913.1
2016-Dec-05 09:33N 35°55' W 004°55'1614.0
2016-Dec-05 08:26N 35°57' W 005°14'1213.9
2016-Dec-05 07:34N 35°57' W 005°29'12013.3
2016-Dec-04 22:33N 36°17' W 007°56'1313.3
2016-Dec-04 21:33N 36°20' W 008°12'1313.3
2016-Dec-04 20:33N 36°23' W 008°28'1313.5
2016-Dec-04 19:34N 36°27' W 008°44'1313.3
2016-Dec-04 18:33N 36°31' W 008°60'1313.3
2016-Dec-04 17:33N 36°34' W 009°16'1313.1
2016-Dec-04 16:33N 36°43' W 009°28'1312.6
2016-Dec-04 15:33N 36°55' W 009°35'1312.8
2016-Dec-04 14:33N 37°07' W 009°38'1312.7
2016-Dec-04 13:33N 37°19' W 009°42'1312.5
2016-Dec-04 12:33N 37°32' W 009°46'1212.3
2016-Dec-04 11:33N 37°44' W 009°49'1211.7
2016-Dec-04 10:33N 37°55' W 009°53'1211.3
2016-Dec-04 09:31N 38°07' W 009°56'1111.6
2016-Dec-04 08:33N 38°17' W 009°59'1111.5
2016-Dec-04 07:33N 38°29' W 010°02'1211.5
2016-Dec-04 06:29N 38°41' W 010°05'2511.3
2016-Dec-04 04:19N 39°05' W 010°05'65312.6
2016-Dec-02 00:31N 49°18' W 004°51'1515.5
2016-Dec-01 23:33N 49°26' W 004°31'1515.4
2016-Dec-01 22:33N 49°34' W 004°11'1614.7
2016-Dec-01 21:29N 49°42' W 003°50'1313.8
2016-Dec-01 20:33N 49°48' W 003°32'1313.0
2016-Dec-01 19:33N 49°54' W 003°15'1413.0
2016-Dec-01 18:29N 50°01' W 002°56'6615.7
2016-Dec-01 14:19N 50°19' W 001°18'1416.5
2016-Dec-01 13:30N 50°23' W 000°57'1614.8
2016-Dec-01 12:25N 50°27' W 000°33'1213.9
2016-Dec-01 11:33N 50°30' W 000°15'1313.0
2016-Dec-01 10:33N 50°34' E 000°05'1212.2
2016-Dec-01 09:33N 50°37' E 000°24'1312.6
2016-Dec-01 08:33N 50°42' E 000°42'1614.7
2016-Dec-01 07:28N 50°51' E 001°02'1515.9
2016-Dec-01 06:34N 51°01' E 001°20'1514.7
2016-Dec-01 05:33N 51°10' E 001°38'1413.7
2016-Dec-01 04:33N 51°21' E 001°50'1312.6
2016-Dec-01 03:33N 51°32' E 002°01'1312.1
2016-Dec-01 02:30N 51°41' E 002°15'5213.1
2016-Nov-30 22:32N 52°18' E 003°16'2813.6
2016-Nov-30 20:29N 52°31' E 003°55'1213.1
2016-Nov-30 19:33N 52°30' E 004°15'1111.2
2016-Nov-30 18:33N 52°28' E 004°33'3 2.8
2016-Nov-30 17:34N 52°28' E 004°38'1 1.4
2016-Nov-30 16:33N 52°28' E 004°40'0 0.0
2016-Nov-30 15:33N 52°28' E 004°40'0 0.0
2016-Nov-30 14:33N 52°28' E 004°40'0 0.0
2016-Nov-30 12:33N 52°28' E 004°40'0 0.0
2016-Nov-30 11:33N 52°28' E 004°40'0 0.0
2016-Nov-30 10:33N 52°28' E 004°40'0 0.0
2016-Nov-30 09:33N 52°28' E 004°40'0 0.0
2016-Nov-30 08:33N 52°28' E 004°40'0 0.0
2016-Nov-30 07:33N 52°28' E 004°40'0 0.0
2016-Nov-30 06:33N 52°28' E 004°40'0 0.0
2016-Nov-30 05:33N 52°28' E 004°40'0 0.0
2016-Nov-30 04:33N 52°28' E 004°40'0 0.0
2016-Nov-30 03:33N 52°28' E 004°40'0 0.0
2016-Nov-30 02:33N 52°28' E 004°40'0 0.0
2016-Nov-30 01:33N 52°28' E 004°40'0 0.0
2016-Nov-30 00:33N 52°28' E 004°40'0 0.0
2016-Nov-29 23:33N 52°28' E 004°40'0 0.0
2016-Nov-29 22:33N 52°28' E 004°40'0 0.0
2016-Nov-29 21:33N 52°28' E 004°40'0 0.0
2016-Nov-29 20:33N 52°28' E 004°40'0 0.0
2016-Nov-29 19:33N 52°28' E 004°40'0 0.0
2016-Nov-29 18:33N 52°28' E 004°40'0 0.0
2016-Nov-29 17:33N 52°28' E 004°40'0 0.0
2016-Nov-29 16:33N 52°28' E 004°40'0 0.0
2016-Nov-29 15:33N 52°28' E 004°40'0 0.0
2016-Nov-29 14:33N 52°28' E 004°40'0 0.0
2016-Nov-29 13:33N 52°28' E 004°40'0 0.0
2016-Nov-29 12:33N 52°28' E 004°40'0 0.0
2016-Nov-29 11:33N 52°28' E 004°40'0 0.0
2016-Nov-29 10:33N 52°28' E 004°40'0 0.0
2016-Nov-29 09:33N 52°28' E 004°40'0 0.0
2016-Nov-29 08:33N 52°28' E 004°40'0 0.0
2016-Nov-29 07:33N 52°28' E 004°40'0 0.0
2016-Nov-29 06:33N 52°28' E 004°40'0 0.0
2016-Nov-29 05:33N 52°28' E 004°40'0 0.0
2016-Nov-29 04:33N 52°28' E 004°40'0 0.0
2016-Nov-29 03:33N 52°28' E 004°40'0 0.0
2016-Nov-29 02:33N 52°28' E 004°40'0 0.0
2016-Nov-29 01:33N 52°28' E 004°40'0 0.0
2016-Nov-29 00:33N 52°28' E 004°40'0 0.0
2016-Nov-28 23:33N 52°28' E 004°40'0 0.0
2016-Nov-28 22:33N 52°28' E 004°40'0 0.0
2016-Nov-28 21:33N 52°28' E 004°40'0 0.0
2016-Nov-28 20:33N 52°28' E 004°40'0 0.0
2016-Nov-28 19:33N 52°28' E 004°40'0 0.0
2016-Nov-28 18:33N 52°28' E 004°40'0 0.0
2016-Nov-28 17:33N 52°28' E 004°40'0 0.0
2016-Nov-28 16:33N 52°28' E 004°40'0 0.0
2016-Nov-28 15:33N 52°28' E 004°40'0 0.0
2016-Nov-28 14:33N 52°28' E 004°40'0 0.0
2016-Nov-28 13:33N 52°28' E 004°40'0 0.0
2016-Nov-28 12:33N 52°28' E 004°40'0 0.0
2016-Nov-28 11:33N 52°28' E 004°40'0 0.0
2016-Nov-28 10:33N 52°28' E 004°40'0 0.0
2016-Nov-28 09:33N 52°28' E 004°40'1 0.5
2016-Nov-28 08:33N 52°28' E 004°40'4 3.5
2016-Nov-28 07:34N 52°28' E 004°34'1111.4
2016-Nov-28 06:34N 52°29' E 004°15'1211.0
2016-Nov-28 05:29N 52°38' E 004°04'2311.0
2016-Nov-28 03:26N 53°01' E 004°09'6112.4
2016-Nov-27 22:33N 53°55' E 004°53'1211.8
2016-Nov-27 21:33N 54°05' E 005°04'1312.8
2016-Nov-27 20:32N 54°07' E 005°26'1212.5
2016-Nov-27 19:33N 54°10' E 005°47'8112.7
2016-Nov-27 13:08N 55°23' E 006°46'813.0
2016-Nov-27 12:31N 55°31' E 006°51'18012.7
2016-Nov-26 22:20N 57°46' E 010°27'911.9
2016-Nov-26 21:33N 57°48' E 010°44'1212.0
2016-Nov-26 20:33N 57°37' E 010°35'0 0.3
2016-Nov-26 19:27N 57°37' E 010°34'0 0.0
2016-Nov-26 18:33N 57°37' E 010°34'0 0.0
2016-Nov-26 17:27N 57°37' E 010°34'0 0.0
2016-Nov-26 16:33N 57°37' E 010°34'0 0.0
2016-Nov-26 15:33N 57°37' E 010°34'0 0.0
2016-Nov-26 14:09N 57°37' E 010°34'0 0.1
2016-Nov-26 13:33N 57°37' E 010°34'0 0.1
2016-Nov-26 12:27N 57°37' E 010°34'0 0.0
2016-Nov-26 11:15N 57°37' E 010°34'0 0.1
2016-Nov-26 10:21N 57°37' E 010°34'0 0.1
2016-Nov-26 08:19N 57°37' E 010°34'6 7.6
2016-Nov-26 07:33N 57°37' E 010°45'1312.8
2016-Nov-26 06:33N 57°34' E 011°08'1312.7
2016-Nov-26 05:33N 57°28' E 011°29'1413.7
2016-Nov-26 04:33N 57°14' E 011°36'1413.7
2016-Nov-26 03:33N 57°02' E 011°46'4113.6
2016-Nov-26 00:33N 56°25' E 012°18'1414.5
2016-Nov-25 23:34N 56°12' E 012°29'1313.1
2016-Nov-25 22:34N 56°00' E 012°41'1414.0
2016-Nov-25 21:33N 55°47' E 012°48'1211.6
2016-Nov-25 20:33N 55°36' E 012°51'1312.6
2016-Nov-25 19:33N 55°24' E 012°42'1010.1
2016-Nov-25 18:33N 55°16' E 012°53'1413.6
2016-Nov-25 17:34N 55°16' E 013°17'1514.5
2016-Nov-25 16:33N 55°15' E 013°43'1414.5
2016-Nov-25 15:33N 55°14' E 014°08'1313.3
2016-Nov-25 14:33N 55°22' E 014°27'1414.4
2016-Nov-25 13:33N 55°31' E 014°46'1414.3
2016-Nov-25 12:33N 55°38' E 015°08'1514.5
2016-Nov-25 11:30N 55°46' E 015°32'1714.5
2016-Nov-25 10:20N 55°54' E 015°58'  
Track history (hours):
 
Tides and Currents Weather Stations Pressure Air Temp Water Temp Dewpoint Dewpoint Depression Visibility Wind Speed Wind Dir Waves Ship Positions

Silver Bergen

Last reported at 2016-Dec-05 10:16 UTC. Time now 2016-Dec-08 00:15 UTC.
Position N 35°55' W 004°44'.

Length 98 m; draft 5.9 m.

Type: Cargo ship. MMSI: 257951000.

Date/timePositionNaut miles runAvg speedWind from/ knotsBaromVisibWave heightAir tempDewpointWater temp
2016-Dec-05 10:16N 35°55' W 004°44'913.1
2016-Dec-05 09:33N 35°55' W 004°55'1614.0
2016-Dec-05 08:26N 35°57' W 005°14'1213.9
2016-Dec-05 07:34N 35°57' W 005°29'12013.3
2016-Dec-04 22:33N 36°17' W 007°56'1313.3
2016-Dec-04 21:33N 36°20' W 008°12'1313.3
2016-Dec-04 20:33N 36°23' W 008°28'1313.5
2016-Dec-04 19:34N 36°27' W 008°44'1313.3
2016-Dec-04 18:33N 36°31' W 008°60'1313.3
2016-Dec-04 17:33N 36°34' W 009°16'1313.1
2016-Dec-04 16:33N 36°43' W 009°28'1312.6
2016-Dec-04 15:33N 36°55' W 009°35'1312.8
2016-Dec-04 14:33N 37°07' W 009°38'1312.7
2016-Dec-04 13:33N 37°19' W 009°42'1312.5
2016-Dec-04 12:33N 37°32' W 009°46'1212.3
2016-Dec-04 11:33N 37°44' W 009°49'1211.7
2016-Dec-04 10:33N 37°55' W 009°53'1211.3
2016-Dec-04 09:31N 38°07' W 009°56'1111.6
2016-Dec-04 08:33N 38°17' W 009°59'1111.5
2016-Dec-04 07:33N 38°29' W 010°02'1211.5
2016-Dec-04 06:29N 38°41' W 010°05'2511.3
2016-Dec-04 04:19N 39°05' W 010°05'65312.6
2016-Dec-02 00:31N 49°18' W 004°51'1515.5
2016-Dec-01 23:33N 49°26' W 004°31'1515.4
2016-Dec-01 22:33N 49°34' W 004°11'1614.7
2016-Dec-01 21:29N 49°42' W 003°50'1313.8
2016-Dec-01 20:33N 49°48' W 003°32'1313.0
2016-Dec-01 19:33N 49°54' W 003°15'1413.0
2016-Dec-01 18:29N 50°01' W 002°56'6615.7
2016-Dec-01 14:19N 50°19' W 001°18'1416.5
2016-Dec-01 13:30N 50°23' W 000°57'1614.8
2016-Dec-01 12:25N 50°27' W 000°33'1213.9
2016-Dec-01 11:33N 50°30' W 000°15'1313.0
2016-Dec-01 10:33N 50°34' E 000°05'1212.2
2016-Dec-01 09:33N 50°37' E 000°24'1312.6
2016-Dec-01 08:33N 50°42' E 000°42'1614.7
2016-Dec-01 07:28N 50°51' E 001°02'1515.9
2016-Dec-01 06:34N 51°01' E 001°20'1514.7
2016-Dec-01 05:33N 51°10' E 001°38'1413.7
2016-Dec-01 04:33N 51°21' E 001°50'1312.6
2016-Dec-01 03:33N 51°32' E 002°01'1312.1
2016-Dec-01 02:30N 51°41' E 002°15'5213.1
2016-Nov-30 22:32N 52°18' E 003°16'2813.6
2016-Nov-30 20:29N 52°31' E 003°55'1213.1
2016-Nov-30 19:33N 52°30' E 004°15'1111.2
2016-Nov-30 18:33N 52°28' E 004°33'3 2.8
2016-Nov-30 17:34N 52°28' E 004°38'1 1.4
2016-Nov-30 16:33N 52°28' E 004°40'0 0.0
2016-Nov-30 15:33N 52°28' E 004°40'0 0.0
2016-Nov-30 14:33N 52°28' E 004°40'0 0.0
2016-Nov-30 12:33N 52°28' E 004°40'0 0.0
2016-Nov-30 11:33N 52°28' E 004°40'0 0.0
2016-Nov-30 10:33N 52°28' E 004°40'0 0.0
2016-Nov-30 09:33N 52°28' E 004°40'0 0.0
2016-Nov-30 08:33N 52°28' E 004°40'0 0.0
2016-Nov-30 07:33N 52°28' E 004°40'0 0.0
2016-Nov-30 06:33N 52°28' E 004°40'0 0.0
2016-Nov-30 05:33N 52°28' E 004°40'0 0.0
2016-Nov-30 04:33N 52°28' E 004°40'0 0.0
2016-Nov-30 03:33N 52°28' E 004°40'0 0.0
2016-Nov-30 02:33N 52°28' E 004°40'0 0.0
2016-Nov-30 01:33N 52°28' E 004°40'0 0.0
2016-Nov-30 00:33N 52°28' E 004°40'0 0.0
2016-Nov-29 23:33N 52°28' E 004°40'0 0.0
2016-Nov-29 22:33N 52°28' E 004°40'0 0.0
2016-Nov-29 21:33N 52°28' E 004°40'0 0.0
2016-Nov-29 20:33N 52°28' E 004°40'0 0.0
2016-Nov-29 19:33N 52°28' E 004°40'0 0.0
2016-Nov-29 18:33N 52°28' E 004°40'0 0.0
2016-Nov-29 17:33N 52°28' E 004°40'0 0.0
2016-Nov-29 16:33N 52°28' E 004°40'0 0.0
2016-Nov-29 15:33N 52°28' E 004°40'0 0.0
2016-Nov-29 14:33N 52°28' E 004°40'0 0.0
2016-Nov-29 13:33N 52°28' E 004°40'0 0.0
2016-Nov-29 12:33N 52°28' E 004°40'0 0.0
2016-Nov-29 11:33N 52°28' E 004°40'0 0.0
2016-Nov-29 10:33N 52°28' E 004°40'0 0.0
2016-Nov-29 09:33N 52°28' E 004°40'0 0.0
2016-Nov-29 08:33N 52°28' E 004°40'0 0.0
2016-Nov-29 07:33N 52°28' E 004°40'0 0.0
2016-Nov-29 06:33N 52°28' E 004°40'0 0.0
2016-Nov-29 05:33N 52°28' E 004°40'0 0.0
2016-Nov-29 04:33N 52°28' E 004°40'0 0.0
2016-Nov-29 03:33N 52°28' E 004°40'0 0.0
2016-Nov-29 02:33N 52°28' E 004°40'0 0.0
2016-Nov-29 01:33N 52°28' E 004°40'0 0.0
2016-Nov-29 00:33N 52°28' E 004°40'0 0.0
2016-Nov-28 23:33N 52°28' E 004°40'0 0.0
2016-Nov-28 22:33N 52°28' E 004°40'0 0.0
2016-Nov-28 21:33N 52°28' E 004°40'0 0.0
2016-Nov-28 20:33N 52°28' E 004°40'0 0.0
2016-Nov-28 19:33N 52°28' E 004°40'0 0.0
2016-Nov-28 18:33N 52°28' E 004°40'0 0.0
2016-Nov-28 17:33N 52°28' E 004°40'0 0.0
2016-Nov-28 16:33N 52°28' E 004°40'0 0.0
2016-Nov-28 15:33N 52°28' E 004°40'0 0.0
2016-Nov-28 14:33N 52°28' E 004°40'0 0.0
2016-Nov-28 13:33N 52°28' E 004°40'0 0.0
2016-Nov-28 12:33N 52°28' E 004°40'0 0.0
2016-Nov-28 11:33N 52°28' E 004°40'0 0.0
2016-Nov-28 10:33N 52°28' E 004°40'0 0.0
2016-Nov-28 09:33N 52°28' E 004°40'1 0.5
2016-Nov-28 08:33N 52°28' E 004°40'4 3.5
2016-Nov-28 07:34N 52°28' E 004°34'1111.4
2016-Nov-28 06:34N 52°29' E 004°15'1211.0
2016-Nov-28 05:29N 52°38' E 004°04'2311.0
2016-Nov-28 03:26N 53°01' E 004°09'6112.4
2016-Nov-27 22:33N 53°55' E 004°53'1211.8
2016-Nov-27 21:33N 54°05' E 005°04'1312.8
2016-Nov-27 20:32N 54°07' E 005°26'1212.5
2016-Nov-27 19:33N 54°10' E 005°47'8112.7
2016-Nov-27 13:08N 55°23' E 006°46'813.0
2016-Nov-27 12:31N 55°31' E 006°51'18012.7
2016-Nov-26 22:20N 57°46' E 010°27'911.9
2016-Nov-26 21:33N 57°48' E 010°44'1212.0
2016-Nov-26 20:33N 57°37' E 010°35'0 0.3
2016-Nov-26 19:27N 57°37' E 010°34'0 0.0
2016-Nov-26 18:33N 57°37' E 010°34'0 0.0
2016-Nov-26 17:27N 57°37' E 010°34'0 0.0
2016-Nov-26 16:33N 57°37' E 010°34'0 0.0
2016-Nov-26 15:33N 57°37' E 010°34'0 0.0
2016-Nov-26 14:09N 57°37' E 010°34'0 0.1
2016-Nov-26 13:33N 57°37' E 010°34'0 0.1
2016-Nov-26 12:27N 57°37' E 010°34'0 0.0
2016-Nov-26 11:15N 57°37' E 010°34'0 0.1
2016-Nov-26 10:21N 57°37' E 010°34'0 0.1
2016-Nov-26 08:19N 57°37' E 010°34'6 7.6
2016-Nov-26 07:33N 57°37' E 010°45'1312.8
2016-Nov-26 06:33N 57°34' E 011°08'1312.7
2016-Nov-26 05:33N 57°28' E 011°29'1413.7
2016-Nov-26 04:33N 57°14' E 011°36'1413.7
2016-Nov-26 03:33N 57°02' E 011°46'4113.6
2016-Nov-26 00:33N 56°25' E 012°18'1414.5
2016-Nov-25 23:34N 56°12' E 012°29'1313.1
2016-Nov-25 22:34N 56°00' E 012°41'1414.0
2016-Nov-25 21:33N 55°47' E 012°48'1211.6
2016-Nov-25 20:33N 55°36' E 012°51'1312.6
2016-Nov-25 19:33N 55°24' E 012°42'1010.1
2016-Nov-25 18:33N 55°16' E 012°53'1413.6
2016-Nov-25 17:34N 55°16' E 013°17'1514.5
2016-Nov-25 16:33N 55°15' E 013°43'1414.5
2016-Nov-25 15:33N 55°14' E 014°08'1313.3
2016-Nov-25 14:33N 55°22' E 014°27'1414.4
2016-Nov-25 13:33N 55°31' E 014°46'1414.3
2016-Nov-25 12:33N 55°38' E 015°08'1514.5
2016-Nov-25 11:30N 55°46' E 015°32'1714.5
2016-Nov-25 10:20N 55°54' E 015°58'  

Dump ship's entire track history